sensor_id;sensor_type;location;lat;lon;timestamp;temperature;humidity
10768;DHT22;5436;51.162;4.162;2022-08-21T11:28:35;16.00;99.90
10768;DHT22;5436;51.162;4.162;2022-08-21T11:53:39;26.30;99.90
10768;DHT22;5436;51.162;4.162;2022-08-21T11:56:14;26.30;99.90
10768;DHT22;5436;51.162;4.162;2022-08-21T13:36:43;26.00;99.90
10768;DHT22;5436;51.162;4.162;2022-08-21T13:39:14;25.60;99.90
10768;DHT22;5436;51.162;4.162;2022-08-21T15:54:07;25.60;99.90
10768;DHT22;5436;51.162;4.162;2022-08-21T15:59:09;24.90;99.90
10768;DHT22;5436;51.162;4.162;2022-08-21T16:01:41;24.60;99.90
10768;DHT22;5436;51.162;4.162;2022-08-21T16:04:13;24.50;99.90
10768;DHT22;5436;51.162;4.162;2022-08-21T16:06:44;24.50;99.90
10768;DHT22;5436;51.162;4.162;2022-08-21T16:09:23;24.30;99.90
10768;DHT22;5436;51.162;4.162;2022-08-21T16:11:52;24.30;99.90
10768;DHT22;5436;51.162;4.162;2022-08-21T16:14:23;24.30;99.90
10768;DHT22;5436;51.162;4.162;2022-08-21T16:16:56;24.30;99.90
10768;DHT22;5436;51.162;4.162;2022-08-21T16:21:53;24.00;99.90
10768;DHT22;5436;51.162;4.162;2022-08-21T16:24:28;24.10;99.90
10768;DHT22;5436;51.162;4.162;2022-08-21T16:34:45;24.20;99.90
10768;DHT22;5436;51.162;4.162;2022-08-21T16:37:16;24.30;99.90
10768;DHT22;5436;51.162;4.162;2022-08-21T16:39:52;24.50;99.90
10768;DHT22;5436;51.162;4.162;2022-08-21T16:42:24;24.60;99.90
10768;DHT22;5436;51.162;4.162;2022-08-21T16:45:02;24.70;99.90
10768;DHT22;5436;51.162;4.162;2022-08-21T16:47:34;24.60;99.90
10768;DHT22;5436;51.162;4.162;2022-08-21T16:52:31;24.00;99.90
10768;DHT22;5436;51.162;4.162;2022-08-21T16:55:04;23.80;99.90
10768;DHT22;5436;51.162;4.162;2022-08-21T16:59:59;24.30;99.90
10768;DHT22;5436;51.162;4.162;2022-08-21T17:02:33;24.20;99.90
10768;DHT22;5436;51.162;4.162;2022-08-21T17:12:35;23.90;99.90
10768;DHT22;5436;51.162;4.162;2022-08-21T17:15:26;23.70;99.90
10768;DHT22;5436;51.162;4.162;2022-08-21T17:18:03;23.70;99.90
10768;DHT22;5436;51.162;4.162;2022-08-21T17:20:36;23.30;99.90
10768;DHT22;5436;51.162;4.162;2022-08-21T17:25:37;22.90;99.90
10768;DHT22;5436;51.162;4.162;2022-08-21T17:28:13;22.80;99.90
10768;DHT22;5436;51.162;4.162;2022-08-21T17:30:46;22.70;99.90
10768;DHT22;5436;51.162;4.162;2022-08-21T17:33:22;22.50;99.90
10768;DHT22;5436;51.162;4.162;2022-08-21T17:35:54;22.70;99.90
10768;DHT22;5436;51.162;4.162;2022-08-21T17:40:55;22.60;99.90
10768;DHT22;5436;51.162;4.162;2022-08-21T17:43:30;22.60;99.90
10768;DHT22;5436;51.162;4.162;2022-08-21T17:45:59;22.50;99.90
10768;DHT22;5436;51.162;4.162;2022-08-21T17:48:28;22.50;99.90
10768;DHT22;5436;51.162;4.162;2022-08-21T17:50:57;22.40;99.90
10768;DHT22;5436;51.162;4.162;2022-08-21T17:53:29;22.40;99.90
10768;DHT22;5436;51.162;4.162;2022-08-21T17:55:58;22.30;99.90
10768;DHT22;5436;51.162;4.162;2022-08-21T17:58:33;22.30;99.90
10768;DHT22;5436;51.162;4.162;2022-08-21T18:01:04;22.30;99.90
10768;DHT22;5436;51.162;4.162;2022-08-21T18:03:33;22.20;99.90
10768;DHT22;5436;51.162;4.162;2022-08-21T18:17:03;21.90;99.90
10768;DHT22;5436;51.162;4.162;2022-08-21T18:26:45;21.60;99.90
10768;DHT22;5436;51.162;4.162;2022-08-21T18:29:16;21.60;99.90
10768;DHT22;5436;51.162;4.162;2022-08-21T18:31:49;21.50;99.90
10768;DHT22;5436;51.162;4.162;2022-08-21T18:37:39;21.60;99.90
10768;DHT22;5436;51.162;4.162;2022-08-21T18:40:10;21.50;99.90
10768;DHT22;5436;51.162;4.162;2022-08-21T18:42:43;21.40;99.90
10768;DHT22;5436;51.162;4.162;2022-08-21T18:45:19;21.30;99.90
10768;DHT22;5436;51.162;4.162;2022-08-21T18:47:51;21.30;99.90
10768;DHT22;5436;51.162;4.162;2022-08-21T19:00:19;21.10;99.90
10768;DHT22;5436;51.162;4.162;2022-08-21T19:02:52;21.10;99.90
10768;DHT22;5436;51.162;4.162;2022-08-21T19:05:24;21.10;99.90
10768;DHT22;5436;51.162;4.162;2022-08-21T19:07:54;20.90;99.90
10768;DHT22;5436;51.162;4.162;2022-08-21T19:10:26;20.90;99.90
10768;DHT22;5436;51.162;4.162;2022-08-21T19:12:59;21.00;99.90
10768;DHT22;5436;51.162;4.162;2022-08-21T19:15:32;21.00;99.90
10768;DHT22;5436;51.162;4.162;2022-08-21T19:18:02;21.00;99.90
10768;DHT22;5436;51.162;4.162;2022-08-21T19:20:34;21.00;99.90
10768;DHT22;5436;51.162;4.162;2022-08-21T19:23:07;20.80;99.90
10768;DHT22;5436;51.162;4.162;2022-08-21T19:46:07;20.80;99.90
10768;DHT22;5436;51.162;4.162;2022-08-21T19:48:37;20.70;99.90
10768;DHT22;5436;51.162;4.162;2022-08-21T19:54:27;20.70;99.90
10768;DHT22;5436;51.162;4.162;2022-08-21T20:04:23;20.70;99.90
10768;DHT22;5436;51.162;4.162;2022-08-21T20:06:52;20.70;99.90
10768;DHT22;5436;51.162;4.162;2022-08-21T20:09:22;20.60;99.90
10768;DHT22;5436;51.162;4.162;2022-08-21T20:11:52;20.50;99.90
10768;DHT22;5436;51.162;4.162;2022-08-21T20:14:26;20.40;99.90
10768;DHT22;5436;51.162;4.162;2022-08-21T20:17:00;20.40;99.90
10768;DHT22;5436;51.162;4.162;2022-08-21T20:22:03;20.30;99.90
10768;DHT22;5436;51.162;4.162;2022-08-21T20:24:33;20.40;99.90
10768;DHT22;5436;51.162;4.162;2022-08-21T20:27:03;20.40;99.90
10768;DHT22;5436;51.162;4.162;2022-08-21T20:29:35;20.40;99.90
10768;DHT22;5436;51.162;4.162;2022-08-21T20:32:05;20.50;99.90
10768;DHT22;5436;51.162;4.162;2022-08-21T20:34:34;20.30;99.90
10768;DHT22;5436;51.162;4.162;2022-08-21T20:37:06;20.30;99.90
10768;DHT22;5436;51.162;4.162;2022-08-21T20:39:34;20.30;99.90
10768;DHT22;5436;51.162;4.162;2022-08-21T20:42:04;20.30;99.90
10768;DHT22;5436;51.162;4.162;2022-08-21T20:44:35;20.20;99.90
10768;DHT22;5436;51.162;4.162;2022-08-21T20:47:04;20.20;99.90
10768;DHT22;5436;51.162;4.162;2022-08-21T20:49:37;20.20;99.90
10768;DHT22;5436;51.162;4.162;2022-08-21T20:52:13;20.20;99.90
10768;DHT22;5436;51.162;4.162;2022-08-21T20:54:47;20.10;99.90
10768;DHT22;5436;51.162;4.162;2022-08-21T20:57:19;20.10;99.90
10768;DHT22;5436;51.162;4.162;2022-08-21T20:59:54;20.10;99.90
10768;DHT22;5436;51.162;4.162;2022-08-21T21:02:35;20.10;99.90
10768;DHT22;5436;51.162;4.162;2022-08-21T21:05:11;20.00;99.90
10768;DHT22;5436;51.162;4.162;2022-08-21T21:07:52;20.00;99.90
10768;DHT22;5436;51.162;4.162;2022-08-21T21:10:27;20.00;99.90
10768;DHT22;5436;51.162;4.162;2022-08-21T21:13:00;20.00;99.90
10768;DHT22;5436;51.162;4.162;2022-08-21T21:15:32;20.00;99.90
10768;DHT22;5436;51.162;4.162;2022-08-21T21:18:07;20.10;99.90
10768;DHT22;5436;51.162;4.162;2022-08-21T21:20:43;20.10;99.90
10768;DHT22;5436;51.162;4.162;2022-08-21T21:23:21;20.20;99.90
10768;DHT22;5436;51.162;4.162;2022-08-21T21:25:56;20.20;99.90
10768;DHT22;5436;51.162;4.162;2022-08-21T21:28:33;20.30;99.90
10768;DHT22;5436;51.162;4.162;2022-08-21T21:31:04;20.20;99.90
10768;DHT22;5436;51.162;4.162;2022-08-21T21:33:33;20.20;99.90
10768;DHT22;5436;51.162;4.162;2022-08-21T21:36:08;20.30;99.90
10768;DHT22;5436;51.162;4.162;2022-08-21T21:38:49;20.20;99.90
10768;DHT22;5436;51.162;4.162;2022-08-21T21:41:24;20.20;99.90
10768;DHT22;5436;51.162;4.162;2022-08-21T21:44:04;20.10;99.90
10768;DHT22;5436;51.162;4.162;2022-08-21T21:46:40;20.10;99.90
10768;DHT22;5436;51.162;4.162;2022-08-21T21:49:34;20.10;99.90
10768;DHT22;5436;51.162;4.162;2022-08-21T21:52:21;20.10;99.90
10768;DHT22;5436;51.162;4.162;2022-08-21T21:55:03;20.10;99.90
10768;DHT22;5436;51.162;4.162;2022-08-21T21:57:46;20.20;99.90
10768;DHT22;5436;51.162;4.162;2022-08-21T22:00:19;20.30;99.90
10768;DHT22;5436;51.162;4.162;2022-08-21T22:03:01;20.20;99.90
10768;DHT22;5436;51.162;4.162;2022-08-21T22:05:43;20.10;99.90
10768;DHT22;5436;51.162;4.162;2022-08-21T22:08:23;20.10;99.90
10768;DHT22;5436;51.162;4.162;2022-08-21T22:11:01;20.10;99.90
10768;DHT22;5436;51.162;4.162;2022-08-21T22:13:32;20.10;99.90
10768;DHT22;5436;51.162;4.162;2022-08-21T22:16:04;20.10;99.90
10768;DHT22;5436;51.162;4.162;2022-08-21T22:18:38;20.00;99.90
10768;DHT22;5436;51.162;4.162;2022-08-21T22:21:11;19.90;99.90
10768;DHT22;5436;51.162;4.162;2022-08-21T22:23:43;19.90;99.90
10768;DHT22;5436;51.162;4.162;2022-08-21T22:26:19;19.80;99.90
10768;DHT22;5436;51.162;4.162;2022-08-21T22:28:50;19.90;99.90
10768;DHT22;5436;51.162;4.162;2022-08-21T22:31:21;19.90;99.90
10768;DHT22;5436;51.162;4.162;2022-08-21T22:34:04;19.90;99.90
10768;DHT22;5436;51.162;4.162;2022-08-21T22:36:38;19.90;99.90
10768;DHT22;5436;51.162;4.162;2022-08-21T22:39:13;19.90;99.90
10768;DHT22;5436;51.162;4.162;2022-08-21T22:41:46;19.90;99.90
10768;DHT22;5436;51.162;4.162;2022-08-21T22:44:20;19.70;99.90
10768;DHT22;5436;51.162;4.162;2022-08-21T22:46:52;19.70;99.90
10768;DHT22;5436;51.162;4.162;2022-08-21T22:49:33;19.60;99.90
10768;DHT22;5436;51.162;4.162;2022-08-21T22:52:09;19.60;99.90
10768;DHT22;5436;51.162;4.162;2022-08-21T22:54:41;19.50;99.90
10768;DHT22;5436;51.162;4.162;2022-08-21T22:57:22;19.50;99.90
10768;DHT22;5436;51.162;4.162;2022-08-21T22:59:55;19.40;99.90
10768;DHT22;5436;51.162;4.162;2022-08-21T23:02:31;19.40;99.90
10768;DHT22;5436;51.162;4.162;2022-08-21T23:05:04;19.40;99.90
10768;DHT22;5436;51.162;4.162;2022-08-21T23:07:36;19.30;99.90
10768;DHT22;5436;51.162;4.162;2022-08-21T23:10:08;19.30;99.90
10768;DHT22;5436;51.162;4.162;2022-08-21T23:12:49;19.30;99.90
10768;DHT22;5436;51.162;4.162;2022-08-21T23:15:18;19.40;99.90
10768;DHT22;5436;51.162;4.162;2022-08-21T23:17:53;19.30;99.90
10768;DHT22;5436;51.162;4.162;2022-08-21T23:20:35;19.40;99.90
10768;DHT22;5436;51.162;4.162;2022-08-21T23:23:15;19.40;99.90
10768;DHT22;5436;51.162;4.162;2022-08-21T23:25:57;19.40;99.90
10768;DHT22;5436;51.162;4.162;2022-08-21T23:28:45;19.40;99.90
10768;DHT22;5436;51.162;4.162;2022-08-21T23:31:22;19.40;99.90
10768;DHT22;5436;51.162;4.162;2022-08-21T23:34:01;19.40;99.90
10768;DHT22;5436;51.162;4.162;2022-08-21T23:36:40;19.30;99.90
10768;DHT22;5436;51.162;4.162;2022-08-21T23:39:41;19.30;99.90
10768;DHT22;5436;51.162;4.162;2022-08-21T23:42:24;19.30;99.90
10768;DHT22;5436;51.162;4.162;2022-08-21T23:45:03;19.30;99.90
10768;DHT22;5436;51.162;4.162;2022-08-21T23:47:48;19.30;99.90
10768;DHT22;5436;51.162;4.162;2022-08-21T23:50:23;19.30;99.90
10768;DHT22;5436;51.162;4.162;2022-08-21T23:53:03;19.30;99.90
10768;DHT22;5436;51.162;4.162;2022-08-21T23:55:42;19.30;99.90
10768;DHT22;5436;51.162;4.162;2022-08-21T23:58:24;19.30;99.90
